Saxonville, Massachusetts
Current Conditions -  °F | °C
As of 1:56 PM on Sunday 21 Dec 2014 (Local Time) from KBED Reporting Station
Light Snow Light Snow  
Wind Chill: 27°   Ceiling: 1700
Heat Index: 34°   Visibility: 6mi
Dew Point: 25°   Wind: 8mph
Humidity: 70%   Direction: 30°NNE
Pressure: 30.29"   Gusts: NA
Location:  42.3203°N, 71.4404°W
Report Text: KBED 211856Z 03007KT 6SM -SN OVC017 01/M04 A3029 RMK AO2 SNB44 SLP273 P0000 T00111039
Loading
Personal Weather Stations






























Interactive Weather Map New forecast layout! Learn more

10-Day Weather Forecast

Advertisements
Track Severe Weather on mobile